sensor_id;sensor_type;location;lat;lon;timestamp;P1;durP1;ratioP1;P2;durP2;ratioP2
80425;SDS011;69766;51.476;5.704;2023-08-08T00:01:03;10.80;;;2.90;;
80425;SDS011;69766;51.476;5.704;2023-08-08T00:03:29;8.45;;;3.50;;
80425;SDS011;69766;51.476;5.704;2023-08-08T00:05:54;6.25;;;2.67;;
80425;SDS011;69766;51.476;5.704;2023-08-08T00:08:20;5.45;;;2.92;;
80425;SDS011;69766;51.476;5.704;2023-08-08T00:10:46;6.95;;;3.05;;
80425;SDS011;69766;51.476;5.704;2023-08-08T00:13:12;7.72;;;3.97;;
80425;SDS011;69766;51.476;5.704;2023-08-08T00:15:40;8.50;;;2.60;;
80425;SDS011;69766;51.476;5.704;2023-08-08T00:18:18;8.52;;;3.15;;
80425;SDS011;69766;51.476;5.704;2023-08-08T00:20:49;6.25;;;3.15;;
80425;SDS011;69766;51.476;5.704;2023-08-08T00:23:15;8.65;;;3.15;;
80425;SDS011;69766;51.476;5.704;2023-08-08T00:25:41;6.93;;;3.03;;
80425;SDS011;69766;51.476;5.704;2023-08-08T00:28:07;5.60;;;2.97;;
80425;SDS011;69766;51.476;5.704;2023-08-08T00:30:32;7.43;;;2.90;;
80425;SDS011;69766;51.476;5.704;2023-08-08T00:33:01;7.93;;;3.17;;
80425;SDS011;69766;51.476;5.704;2023-08-08T00:35:26;6.13;;;3.75;;
80425;SDS011;69766;51.476;5.704;2023-08-08T00:37:52;6.68;;;3.33;;
80425;SDS011;69766;51.476;5.704;2023-08-08T00:40:23;4.45;;;2.63;;
80425;SDS011;69766;51.476;5.704;2023-08-08T00:42:52;5.90;;;3.10;;
80425;SDS011;69766;51.476;5.704;2023-08-08T00:45:28;6.07;;;2.75;;
80425;SDS011;69766;51.476;5.704;2023-08-08T00:47:56;8.45;;;2.78;;
80425;SDS011;69766;51.476;5.704;2023-08-08T00:50:22;7.32;;;3.08;;
80425;SDS011;69766;51.476;5.704;2023-08-08T00:52:48;7.93;;;2.97;;
80425;SDS011;69766;51.476;5.704;2023-08-08T00:55:23;5.38;;;2.58;;
80425;SDS011;69766;51.476;5.704;2023-08-08T00:57:51;6.25;;;2.70;;
80425;SDS011;69766;51.476;5.704;2023-08-08T01:00:17;10.23;;;2.80;;
80425;SDS011;69766;51.476;5.704;2023-08-08T01:02:43;8.48;;;2.88;;
80425;SDS011;69766;51.476;5.704;2023-08-08T01:05:09;10.18;;;2.83;;
80425;SDS011;69766;51.476;5.704;2023-08-08T01:10:13;5.40;;;2.72;;
80425;SDS011;69766;51.476;5.704;2023-08-08T01:12:43;9.48;;;3.03;;
80425;SDS011;69766;51.476;5.704;2023-08-08T01:15:11;6.15;;;3.28;;
80425;SDS011;69766;51.476;5.704;2023-08-08T01:17:38;4.00;;;2.47;;
80425;SDS011;69766;51.476;5.704;2023-08-08T01:20:10;8.77;;;3.28;;
80425;SDS011;69766;51.476;5.704;2023-08-08T01:22:40;4.82;;;2.95;;
80425;SDS011;69766;51.476;5.704;2023-08-08T01:25:28;7.75;;;2.72;;
80425;SDS011;69766;51.476;5.704;2023-08-08T01:27:55;5.32;;;2.60;;
80425;SDS011;69766;51.476;5.704;2023-08-08T01:30:20;7.32;;;3.03;;
80425;SDS011;69766;51.476;5.704;2023-08-08T01:32:46;7.03;;;3.03;;
80425;SDS011;69766;51.476;5.704;2023-08-08T01:35:12;8.85;;;2.97;;
80425;SDS011;69766;51.476;5.704;2023-08-08T01:37:39;10.48;;;3.15;;
80425;SDS011;69766;51.476;5.704;2023-08-08T01:40:09;4.63;;;2.63;;
80425;SDS011;69766;51.476;5.704;2023-08-08T01:42:38;8.43;;;3.30;;
80425;SDS011;69766;51.476;5.704;2023-08-08T01:45:05;5.57;;;2.80;;
80425;SDS011;69766;51.476;5.704;2023-08-08T01:47:31;9.65;;;3.00;;
80425;SDS011;69766;51.476;5.704;2023-08-08T01:49:57;6.78;;;3.00;;
80425;SDS011;69766;51.476;5.704;2023-08-08T01:52:22;9.50;;;2.95;;
80425;SDS011;69766;51.476;5.704;2023-08-08T01:54:48;9.88;;;3.00;;
80425;SDS011;69766;51.476;5.704;2023-08-08T01:57:17;10.80;;;3.28;;
80425;SDS011;69766;51.476;5.704;2023-08-08T01:59:46;9.88;;;3.13;;
80425;SDS011;69766;51.476;5.704;2023-08-08T02:02:11;6.93;;;2.95;;
80425;SDS011;69766;51.476;5.704;2023-08-08T02:07:07;8.18;;;2.80;;
80425;SDS011;69766;51.476;5.704;2023-08-08T02:09:33;8.95;;;3.10;;
80425;SDS011;69766;51.476;5.704;2023-08-08T02:11:59;7.45;;;3.33;;
80425;SDS011;69766;51.476;5.704;2023-08-08T02:14:24;10.95;;;2.83;;
80425;SDS011;69766;51.476;5.704;2023-08-08T02:16:50;8.07;;;3.72;;
80425;SDS011;69766;51.476;5.704;2023-08-08T02:19:16;10.95;;;4.32;;
80425;SDS011;69766;51.476;5.704;2023-08-08T02:21:42;10.57;;;3.63;;
80425;SDS011;69766;51.476;5.704;2023-08-08T02:26:47;15.27;;;3.78;;
80425;SDS011;69766;51.476;5.704;2023-08-08T02:29:13;7.82;;;3.38;;
80425;SDS011;69766;51.476;5.704;2023-08-08T02:31:39;16.27;;;3.45;;
80425;SDS011;69766;51.476;5.704;2023-08-08T02:34:05;6.80;;;3.53;;
80425;SDS011;69766;51.476;5.704;2023-08-08T02:36:30;9.18;;;3.80;;
80425;SDS011;69766;51.476;5.704;2023-08-08T02:38:56;10.05;;;3.85;;
80425;SDS011;69766;51.476;5.704;2023-08-08T02:41:22;7.45;;;3.45;;
80425;SDS011;69766;51.476;5.704;2023-08-08T02:43:48;11.60;;;3.90;;
80425;SDS011;69766;51.476;5.704;2023-08-08T02:46:14;10.73;;;3.78;;
80425;SDS011;69766;51.476;5.704;2023-08-08T02:48:45;8.30;;;4.13;;
80425;SDS011;69766;51.476;5.704;2023-08-08T02:51:13;12.73;;;3.83;;
80425;SDS011;69766;51.476;5.704;2023-08-08T02:53:39;8.43;;;4.13;;
80425;SDS011;69766;51.476;5.704;2023-08-08T02:56:05;9.55;;;4.00;;
80425;SDS011;69766;51.476;5.704;2023-08-08T02:58:30;9.52;;;4.22;;
80425;SDS011;69766;51.476;5.704;2023-08-08T03:00:56;10.38;;;4.45;;
80425;SDS011;69766;51.476;5.704;2023-08-08T03:03:22;10.20;;;4.03;;
80425;SDS011;69766;51.476;5.704;2023-08-08T03:05:48;13.40;;;4.53;;
80425;SDS011;69766;51.476;5.704;2023-08-08T03:08:17;11.57;;;3.97;;
80425;SDS011;69766;51.476;5.704;2023-08-08T03:10:43;12.98;;;4.30;;
80425;SDS011;69766;51.476;5.704;2023-08-08T03:13:09;10.30;;;3.65;;
80425;SDS011;69766;51.476;5.704;2023-08-08T03:15:34;12.80;;;4.00;;
80425;SDS011;69766;51.476;5.704;2023-08-08T03:18:01;9.55;;;4.63;;
80425;SDS011;69766;51.476;5.704;2023-08-08T03:20:27;12.27;;;4.70;;
80425;SDS011;69766;51.476;5.704;2023-08-08T03:22:52;14.27;;;4.47;;
80425;SDS011;69766;51.476;5.704;2023-08-08T03:25:24;12.45;;;4.60;;
80425;SDS011;69766;51.476;5.704;2023-08-08T03:27:50;13.35;;;4.95;;
80425;SDS011;69766;51.476;5.704;2023-08-08T03:30:16;18.00;;;5.20;;
80425;SDS011;69766;51.476;5.704;2023-08-08T03:32:42;11.35;;;5.50;;
80425;SDS011;69766;51.476;5.704;2023-08-08T03:35:07;16.23;;;5.38;;
80425;SDS011;69766;51.476;5.704;2023-08-08T03:37:36;15.48;;;5.10;;
80425;SDS011;69766;51.476;5.704;2023-08-08T03:40:02;10.13;;;4.70;;
80425;SDS011;69766;51.476;5.704;2023-08-08T03:42:32;15.90;;;6.13;;
80425;SDS011;69766;51.476;5.704;2023-08-08T03:45:04;11.70;;;5.78;;
80425;SDS011;69766;51.476;5.704;2023-08-08T03:47:31;13.80;;;4.72;;
80425;SDS011;69766;51.476;5.704;2023-08-08T03:49:56;14.50;;;5.57;;
80425;SDS011;69766;51.476;5.704;2023-08-08T03:52:25;16.92;;;5.20;;
80425;SDS011;69766;51.476;5.704;2023-08-08T03:54:51;13.18;;;4.95;;
80425;SDS011;69766;51.476;5.704;2023-08-08T03:57:17;20.85;;;5.50;;
80425;SDS011;69766;51.476;5.704;2023-08-08T03:59:53;9.68;;;4.63;;
80425;SDS011;69766;51.476;5.704;2023-08-08T04:02:20;18.70;;;6.28;;
80425;SDS011;69766;51.476;5.704;2023-08-08T04:04:49;12.18;;;5.40;;
80425;SDS011;69766;51.476;5.704;2023-08-08T04:07:17;16.98;;;5.47;;
80425;SDS011;69766;51.476;5.704;2023-08-08T04:09:45;12.77;;;5.18;;
80425;SDS011;69766;51.476;5.704;2023-08-08T04:12:11;22.45;;;6.43;;
80425;SDS011;69766;51.476;5.704;2023-08-08T04:14:36;17.50;;;6.63;;
80425;SDS011;69766;51.476;5.704;2023-08-08T04:17:02;17.58;;;6.35;;
80425;SDS011;69766;51.476;5.704;2023-08-08T04:19:29;15.48;;;6.75;;
80425;SDS011;69766;51.476;5.704;2023-08-08T04:21:55;17.42;;;6.65;;
80425;SDS011;69766;51.476;5.704;2023-08-08T04:24:21;21.60;;;7.88;;
80425;SDS011;69766;51.476;5.704;2023-08-08T04:26:46;16.33;;;6.65;;
80425;SDS011;69766;51.476;5.704;2023-08-08T04:29:12;17.50;;;6.65;;
80425;SDS011;69766;51.476;5.704;2023-08-08T04:31:37;16.65;;;6.70;;
80425;SDS011;69766;51.476;5.704;2023-08-08T04:36:39;15.00;;;6.70;;
80425;SDS011;69766;51.476;5.704;2023-08-08T04:39:07;23.38;;;7.63;;
80425;SDS011;69766;51.476;5.704;2023-08-08T04:41:33;16.25;;;7.15;;
80425;SDS011;69766;51.476;5.704;2023-08-08T04:43:58;17.30;;;7.53;;
80425;SDS011;69766;51.476;5.704;2023-08-08T04:46:24;19.83;;;7.10;;
80425;SDS011;69766;51.476;5.704;2023-08-08T04:48:55;21.25;;;6.63;;
80425;SDS011;69766;51.476;5.704;2023-08-08T04:51:21;18.98;;;7.70;;
80425;SDS011;69766;51.476;5.704;2023-08-08T04:53:46;17.48;;;7.07;;
80425;SDS011;69766;51.476;5.704;2023-08-08T04:56:12;26.95;;;7.88;;
80425;SDS011;69766;51.476;5.704;2023-08-08T04:58:38;19.70;;;7.03;;
80425;SDS011;69766;51.476;5.704;2023-08-08T05:01:04;22.38;;;7.72;;
80425;SDS011;69766;51.476;5.704;2023-08-08T05:03:29;22.50;;;7.57;;
80425;SDS011;69766;51.476;5.704;2023-08-08T05:05:55;23.10;;;7.57;;
80425;SDS011;69766;51.476;5.704;2023-08-08T05:08:21;14.77;;;7.47;;
80425;SDS011;69766;51.476;5.704;2023-08-08T05:10:46;17.77;;;7.38;;
80425;SDS011;69766;51.476;5.704;2023-08-08T05:13:12;19.17;;;7.00;;
80425;SDS011;69766;51.476;5.704;2023-08-08T05:15:38;15.88;;;7.13;;
80425;SDS011;69766;51.476;5.704;2023-08-08T05:18:04;18.00;;;6.95;;
80425;SDS011;69766;51.476;5.704;2023-08-08T05:20:32;17.55;;;7.07;;
80425;SDS011;69766;51.476;5.704;2023-08-08T05:23:00;17.58;;;7.40;;
80425;SDS011;69766;51.476;5.704;2023-08-08T05:25:27;24.70;;;7.65;;
80425;SDS011;69766;51.476;5.704;2023-08-08T05:27:53;22.05;;;7.10;;
80425;SDS011;69766;51.476;5.704;2023-08-08T05:30:18;18.10;;;7.13;;
80425;SDS011;69766;51.476;5.704;2023-08-08T05:32:44;21.42;;;7.88;;
80425;SDS011;69766;51.476;5.704;2023-08-08T05:35:10;21.58;;;6.97;;
80425;SDS011;69766;51.476;5.704;2023-08-08T05:37:35;15.45;;;6.03;;
80425;SDS011;69766;51.476;5.704;2023-08-08T05:40:01;16.98;;;7.55;;
80425;SDS011;69766;51.476;5.704;2023-08-08T05:42:42;15.13;;;7.13;;
80425;SDS011;69766;51.476;5.704;2023-08-08T05:45:10;20.27;;;7.50;;
80425;SDS011;69766;51.476;5.704;2023-08-08T05:47:38;22.95;;;7.32;;
80425;SDS011;69766;51.476;5.704;2023-08-08T05:50:05;19.08;;;7.20;;
80425;SDS011;69766;51.476;5.704;2023-08-08T05:52:31;17.70;;;7.38;;
80425;SDS011;69766;51.476;5.704;2023-08-08T05:54:57;22.33;;;7.68;;
80425;SDS011;69766;51.476;5.704;2023-08-08T05:57:24;14.75;;;7.07;;
80425;SDS011;69766;51.476;5.704;2023-08-08T05:59:53;17.98;;;7.38;;
80425;SDS011;69766;51.476;5.704;2023-08-08T06:02:18;22.13;;;7.72;;
80425;SDS011;69766;51.476;5.704;2023-08-08T06:04:44;20.55;;;8.02;;
80425;SDS011;69766;51.476;5.704;2023-08-08T06:07:10;16.17;;;7.18;;
80425;SDS011;69766;51.476;5.704;2023-08-08T06:09:36;17.30;;;6.40;;
80425;SDS011;69766;51.476;5.704;2023-08-08T06:12:02;15.98;;;6.85;;
80425;SDS011;69766;51.476;5.704;2023-08-08T06:14:31;14.15;;;6.32;;
80425;SDS011;69766;51.476;5.704;2023-08-08T06:16:57;21.25;;;6.13;;
80425;SDS011;69766;51.476;5.704;2023-08-08T06:19:23;14.77;;;5.40;;
80425;SDS011;69766;51.476;5.704;2023-08-08T06:21:48;14.73;;;5.65;;
80425;SDS011;69766;51.476;5.704;2023-08-08T06:24:15;18.85;;;5.72;;
80425;SDS011;69766;51.476;5.704;2023-08-08T06:26:49;16.67;;;5.30;;
80425;SDS011;69766;51.476;5.704;2023-08-08T06:29:15;13.52;;;5.60;;
80425;SDS011;69766;51.476;5.704;2023-08-08T06:31:40;13.30;;;5.57;;
80425;SDS011;69766;51.476;5.704;2023-08-08T06:34:06;14.07;;;6.03;;
80425;SDS011;69766;51.476;5.704;2023-08-08T06:36:32;17.23;;;5.88;;
80425;SDS011;69766;51.476;5.704;2023-08-08T06:38:58;16.65;;;6.13;;
80425;SDS011;69766;51.476;5.704;2023-08-08T06:41:24;14.32;;;5.38;;
80425;SDS011;69766;51.476;5.704;2023-08-08T06:43:49;14.10;;;5.78;;
80425;SDS011;69766;51.476;5.704;2023-08-08T06:46:16;18.85;;;6.18;;
80425;SDS011;69766;51.476;5.704;2023-08-08T06:48:42;14.57;;;5.50;;
80425;SDS011;69766;51.476;5.704;2023-08-08T06:51:09;19.73;;;5.30;;
80425;SDS011;69766;51.476;5.704;2023-08-08T06:53:35;15.68;;;5.57;;
80425;SDS011;69766;51.476;5.704;2023-08-08T06:56:04;15.30;;;5.20;;
80425;SDS011;69766;51.476;5.704;2023-08-08T06:58:29;16.50;;;5.38;;
80425;SDS011;69766;51.476;5.704;2023-08-08T07:00:55;13.13;;;4.90;;
80425;SDS011;69766;51.476;5.704;2023-08-08T07:03:21;19.17;;;5.32;;
80425;SDS011;69766;51.476;5.704;2023-08-08T07:05:46;13.02;;;4.45;;
80425;SDS011;69766;51.476;5.704;2023-08-08T07:08:16;12.90;;;4.93;;
80425;SDS011;69766;51.476;5.704;2023-08-08T07:11:04;11.68;;;4.32;;
80425;SDS011;69766;51.476;5.704;2023-08-08T07:13:33;11.07;;;4.50;;
80425;SDS011;69766;51.476;5.704;2023-08-08T07:16:07;13.00;;;4.38;;
80425;SDS011;69766;51.476;5.704;2023-08-08T07:19:18;8.65;;;3.72;;
80425;SDS011;69766;51.476;5.704;2023-08-08T07:21:44;8.55;;;4.00;;
80425;SDS011;69766;51.476;5.704;2023-08-08T07:24:13;13.05;;;4.15;;
80425;SDS011;69766;51.476;5.704;2023-08-08T07:26:41;10.02;;;4.10;;
80425;SDS011;69766;51.476;5.704;2023-08-08T07:29:07;9.73;;;4.20;;
80425;SDS011;69766;51.476;5.704;2023-08-08T07:31:39;10.85;;;3.42;;
80425;SDS011;69766;51.476;5.704;2023-08-08T07:34:04;9.32;;;3.53;;
80425;SDS011;69766;51.476;5.704;2023-08-08T07:36:42;11.32;;;3.90;;
80425;SDS011;69766;51.476;5.704;2023-08-08T07:39:08;14.98;;;4.47;;
80425;SDS011;69766;51.476;5.704;2023-08-08T07:41:33;12.50;;;4.40;;
80425;SDS011;69766;51.476;5.704;2023-08-08T07:44:00;9.95;;;3.97;;
80425;SDS011;69766;51.476;5.704;2023-08-08T07:46:25;11.35;;;3.95;;
80425;SDS011;69766;51.476;5.704;2023-08-08T07:48:51;9.48;;;4.28;;
80425;SDS011;69766;51.476;5.704;2023-08-08T07:51:17;13.52;;;4.88;;
80425;SDS011;69766;51.476;5.704;2023-08-08T07:53:42;13.20;;;4.03;;
80425;SDS011;69766;51.476;5.704;2023-08-08T07:56:08;14.88;;;4.28;;
80425;SDS011;69766;51.476;5.704;2023-08-08T07:58:34;9.90;;;3.58;;
80425;SDS011;69766;51.476;5.704;2023-08-08T08:01:02;10.55;;;3.30;;
80425;SDS011;69766;51.476;5.704;2023-08-08T08:03:28;9.77;;;3.35;;
80425;SDS011;69766;51.476;5.704;2023-08-08T08:05:56;13.80;;;3.60;;
80425;SDS011;69766;51.476;5.704;2023-08-08T08:08:22;15.45;;;3.88;;
80425;SDS011;69766;51.476;5.704;2023-08-08T08:10:49;7.82;;;3.42;;
80425;SDS011;69766;51.476;5.704;2023-08-08T08:13:16;7.43;;;3.28;;
80425;SDS011;69766;51.476;5.704;2023-08-08T08:15:47;8.35;;;3.00;;
80425;SDS011;69766;51.476;5.704;2023-08-08T08:18:13;8.98;;;2.90;;
80425;SDS011;69766;51.476;5.704;2023-08-08T08:20:41;11.63;;;2.50;;
80425;SDS011;69766;51.476;5.704;2023-08-08T08:23:10;10.27;;;3.38;;
80425;SDS011;69766;51.476;5.704;2023-08-08T08:25:37;8.07;;;2.97;;
80425;SDS011;69766;51.476;5.704;2023-08-08T08:28:03;6.15;;;2.45;;
80425;SDS011;69766;51.476;5.704;2023-08-08T08:30:29;7.82;;;2.50;;
80425;SDS011;69766;51.476;5.704;2023-08-08T08:32:54;7.60;;;2.70;;
80425;SDS011;69766;51.476;5.704;2023-08-08T08:35:21;13.38;;;2.88;;
80425;SDS011;69766;51.476;5.704;2023-08-08T08:37:47;9.27;;;3.53;;
80425;SDS011;69766;51.476;5.704;2023-08-08T08:40:13;8.82;;;2.90;;
80425;SDS011;69766;51.476;5.704;2023-08-08T08:42:39;10.43;;;2.85;;
80425;SDS011;69766;51.476;5.704;2023-08-08T08:45:08;8.57;;;2.88;;
80425;SDS011;69766;51.476;5.704;2023-08-08T08:47:35;6.03;;;2.45;;
80425;SDS011;69766;51.476;5.704;2023-08-08T08:50:05;6.80;;;2.72;;
80425;SDS011;69766;51.476;5.704;2023-08-08T08:52:31;7.10;;;2.55;;
80425;SDS011;69766;51.476;5.704;2023-08-08T08:54:57;7.28;;;2.55;;
80425;SDS011;69766;51.476;5.704;2023-08-08T08:57:23;6.90;;;2.13;;
80425;SDS011;69766;51.476;5.704;2023-08-08T08:59:50;8.43;;;2.67;;
80425;SDS011;69766;51.476;5.704;2023-08-08T09:02:16;6.03;;;2.13;;
80425;SDS011;69766;51.476;5.704;2023-08-08T09:04:43;4.88;;;2.17;;
80425;SDS011;69766;51.476;5.704;2023-08-08T09:07:10;8.57;;;2.53;;
80425;SDS011;69766;51.476;5.704;2023-08-08T09:09:37;11.35;;;2.53;;
80425;SDS011;69766;51.476;5.704;2023-08-08T09:12:04;7.30;;;2.17;;
80425;SDS011;69766;51.476;5.704;2023-08-08T09:14:32;6.47;;;1.98;;
80425;SDS011;69766;51.476;5.704;2023-08-08T09:16:58;5.78;;;1.98;;
80425;SDS011;69766;51.476;5.704;2023-08-08T09:19:24;8.15;;;2.38;;
80425;SDS011;69766;51.476;5.704;2023-08-08T09:21:50;7.30;;;2.13;;
80425;SDS011;69766;51.476;5.704;2023-08-08T09:24:20;7.00;;;2.63;;
80425;SDS011;69766;51.476;5.704;2023-08-08T09:26:46;9.73;;;1.67;;
80425;SDS011;69766;51.476;5.704;2023-08-08T09:29:13;5.78;;;2.00;;
80425;SDS011;69766;51.476;5.704;2023-08-08T09:31:40;8.10;;;1.92;;
80425;SDS011;69766;51.476;5.704;2023-08-08T09:34:06;8.00;;;2.30;;
80425;SDS011;69766;51.476;5.704;2023-08-08T09:36:32;4.97;;;1.85;;
80425;SDS011;69766;51.476;5.704;2023-08-08T09:39:00;5.65;;;1.80;;
80425;SDS011;69766;51.476;5.704;2023-08-08T09:41:32;6.93;;;2.47;;
80425;SDS011;69766;51.476;5.704;2023-08-08T09:44:01;7.50;;;2.40;;
80425;SDS011;69766;51.476;5.704;2023-08-08T09:46:29;7.80;;;2.20;;
80425;SDS011;69766;51.476;5.704;2023-08-08T09:48:57;6.05;;;2.40;;
80425;SDS011;69766;51.476;5.704;2023-08-08T09:51:24;6.15;;;2.05;;
80425;SDS011;69766;51.476;5.704;2023-08-08T09:53:50;5.18;;;2.10;;
80425;SDS011;69766;51.476;5.704;2023-08-08T09:56:16;6.93;;;2.08;;
80425;SDS011;69766;51.476;5.704;2023-08-08T09:58:43;5.68;;;2.15;;
80425;SDS011;69766;51.476;5.704;2023-08-08T10:01:11;8.32;;;2.42;;
80425;SDS011;69766;51.476;5.704;2023-08-08T10:03:38;8.38;;;2.90;;
80425;SDS011;69766;51.476;5.704;2023-08-08T10:06:04;8.10;;;2.50;;
80425;SDS011;69766;51.476;5.704;2023-08-08T10:08:30;7.47;;;3.17;;
80425;SDS011;69766;51.476;5.704;2023-08-08T10:10:56;6.85;;;2.53;;
80425;SDS011;69766;51.476;5.704;2023-08-08T10:13:22;7.30;;;2.78;;
80425;SDS011;69766;51.476;5.704;2023-08-08T10:15:50;5.03;;;2.00;;
80425;SDS011;69766;51.476;5.704;2023-08-08T10:18:16;5.18;;;2.30;;
80425;SDS011;69766;51.476;5.704;2023-08-08T10:20:43;7.07;;;2.58;;
80425;SDS011;69766;51.476;5.704;2023-08-08T10:23:14;4.27;;;1.80;;
80425;SDS011;69766;51.476;5.704;2023-08-08T10:25:47;4.93;;;1.85;;
80425;SDS011;69766;51.476;5.704;2023-08-08T10:28:16;4.85;;;1.92;;
80425;SDS011;69766;51.476;5.704;2023-08-08T10:30:44;3.63;;;1.48;;
80425;SDS011;69766;51.476;5.704;2023-08-08T10:33:22;3.17;;;1.65;;
80425;SDS011;69766;51.476;5.704;2023-08-08T10:35:59;4.65;;;1.98;;
80425;SDS011;69766;51.476;5.704;2023-08-08T10:38:42;3.97;;;1.38;;
80425;SDS011;69766;51.476;5.704;2023-08-08T10:41:13;3.83;;;2.05;;
80425;SDS011;69766;51.476;5.704;2023-08-08T10:44:01;8.30;;;2.70;;
80425;SDS011;69766;51.476;5.704;2023-08-08T10:46:28;14.60;;;3.17;;
80425;SDS011;69766;51.476;5.704;2023-08-08T10:48:56;7.78;;;2.50;;
80425;SDS011;69766;51.476;5.704;2023-08-08T10:51:32;7.18;;;2.67;;
80425;SDS011;69766;51.476;5.704;2023-08-08T10:54:03;5.63;;;1.90;;
80425;SDS011;69766;51.476;5.704;2023-08-08T10:56:31;6.38;;;1.80;;
80425;SDS011;69766;51.476;5.704;2023-08-08T10:58:57;4.57;;;2.22;;
80425;SDS011;69766;51.476;5.704;2023-08-08T11:01:26;5.10;;;2.30;;
80425;SDS011;69766;51.476;5.704;2023-08-08T11:03:52;5.90;;;2.55;;
80425;SDS011;69766;51.476;5.704;2023-08-08T11:06:19;6.70;;;2.38;;
80425;SDS011;69766;51.476;5.704;2023-08-08T11:08:45;6.68;;;2.30;;
80425;SDS011;69766;51.476;5.704;2023-08-08T11:11:11;6.40;;;2.50;;
80425;SDS011;69766;51.476;5.704;2023-08-08T11:13:37;7.30;;;2.58;;
80425;SDS011;69766;51.476;5.704;2023-08-08T11:16:03;5.72;;;2.78;;
80425;SDS011;69766;51.476;5.704;2023-08-08T11:18:29;6.72;;;3.40;;
80425;SDS011;69766;51.476;5.704;2023-08-08T11:20:55;7.28;;;3.17;;
80425;SDS011;69766;51.476;5.704;2023-08-08T11:23:20;5.65;;;2.83;;
80425;SDS011;69766;51.476;5.704;2023-08-08T11:25:46;6.15;;;2.83;;
80425;SDS011;69766;51.476;5.704;2023-08-08T11:28:13;8.20;;;2.85;;
80425;SDS011;69766;51.476;5.704;2023-08-08T11:30:40;4.45;;;2.60;;
80425;SDS011;69766;51.476;5.704;2023-08-08T11:33:08;8.50;;;2.95;;
80425;SDS011;69766;51.476;5.704;2023-08-08T11:35:34;7.50;;;2.55;;
80425;SDS011;69766;51.476;5.704;2023-08-08T11:38:00;4.93;;;2.50;;
80425;SDS011;69766;51.476;5.704;2023-08-08T11:40:33;6.10;;;2.30;;
80425;SDS011;69766;51.476;5.704;2023-08-08T11:42:58;3.83;;;1.95;;
80425;SDS011;69766;51.476;5.704;2023-08-08T11:45:24;7.20;;;2.25;;
80425;SDS011;69766;51.476;5.704;2023-08-08T11:47:51;5.03;;;2.25;;
80425;SDS011;69766;51.476;5.704;2023-08-08T11:50:19;6.82;;;2.30;;
80425;SDS011;69766;51.476;5.704;2023-08-08T11:52:48;6.10;;;1.90;;
80425;SDS011;69766;51.476;5.704;2023-08-08T11:55:17;5.03;;;1.88;;
80425;SDS011;69766;51.476;5.704;2023-08-08T11:57:47;5.65;;;1.30;;
80425;SDS011;69766;51.476;5.704;2023-08-08T12:00:16;4.40;;;1.52;;
80425;SDS011;69766;51.476;5.704;2023-08-08T12:03:26;6.35;;;1.60;;
80425;SDS011;69766;51.476;5.704;2023-08-08T12:06:14;5.38;;;1.70;;
80425;SDS011;69766;51.476;5.704;2023-08-08T12:08:44;4.20;;;1.48;;
80425;SDS011;69766;51.476;5.704;2023-08-08T12:11:12;5.70;;;1.65;;
80425;SDS011;69766;51.476;5.704;2023-08-08T12:13:39;6.35;;;2.00;;
80425;SDS011;69766;51.476;5.704;2023-08-08T12:16:10;5.60;;;2.25;;
80425;SDS011;69766;51.476;5.704;2023-08-08T12:18:37;5.70;;;1.60;;
80425;SDS011;69766;51.476;5.704;2023-08-08T12:21:07;3.03;;;1.48;;
80425;SDS011;69766;51.476;5.704;2023-08-08T12:23:33;2.50;;;1.33;;
80425;SDS011;69766;51.476;5.704;2023-08-08T12:26:00;2.55;;;1.20;;
80425;SDS011;69766;51.476;5.704;2023-08-08T12:28:28;3.30;;;1.20;;
80425;SDS011;69766;51.476;5.704;2023-08-08T12:30:56;4.18;;;1.23;;
80425;SDS011;69766;51.476;5.704;2023-08-08T12:33:22;3.50;;;1.40;;
80425;SDS011;69766;51.476;5.704;2023-08-08T12:35:48;3.00;;;1.33;;
80425;SDS011;69766;51.476;5.704;2023-08-08T12:38:14;4.85;;;1.30;;
80425;SDS011;69766;51.476;5.704;2023-08-08T12:40:40;5.55;;;1.23;;
80425;SDS011;69766;51.476;5.704;2023-08-08T12:43:06;4.97;;;0.98;;
80425;SDS011;69766;51.476;5.704;2023-08-08T12:45:32;1.67;;;0.90;;
80425;SDS011;69766;51.476;5.704;2023-08-08T12:47:58;3.63;;;0.80;;
80425;SDS011;69766;51.476;5.704;2023-08-08T12:50:24;3.58;;;1.10;;
80425;SDS011;69766;51.476;5.704;2023-08-08T12:52:49;1.85;;;0.90;;
80425;SDS011;69766;51.476;5.704;2023-08-08T12:55:15;3.78;;;0.80;;
80425;SDS011;69766;51.476;5.704;2023-08-08T12:57:43;1.08;;;0.70;;
80425;SDS011;69766;51.476;5.704;2023-08-08T13:00:09;1.55;;;0.70;;
80425;SDS011;69766;51.476;5.704;2023-08-08T13:02:36;3.53;;;0.82;;
80425;SDS011;69766;51.476;5.704;2023-08-08T13:05:03;3.17;;;0.70;;
80425;SDS011;69766;51.476;5.704;2023-08-08T13:07:29;2.28;;;0.77;;
80425;SDS011;69766;51.476;5.704;2023-08-08T13:09:55;2.72;;;0.80;;
80425;SDS011;69766;51.476;5.704;2023-08-08T13:12:20;1.23;;;0.60;;
80425;SDS011;69766;51.476;5.704;2023-08-08T13:14:46;3.33;;;0.80;;
80425;SDS011;69766;51.476;5.704;2023-08-08T13:17:12;5.28;;;0.95;;
80425;SDS011;69766;51.476;5.704;2023-08-08T13:19:38;4.07;;;0.82;;
80425;SDS011;69766;51.476;5.704;2023-08-08T13:22:04;3.00;;;0.80;;
80425;SDS011;69766;51.476;5.704;2023-08-08T13:24:30;3.33;;;0.88;;
80425;SDS011;69766;51.476;5.704;2023-08-08T13:26:56;6.05;;;0.80;;
80425;SDS011;69766;51.476;5.704;2023-08-08T13:29:21;3.60;;;1.13;;
80425;SDS011;69766;51.476;5.704;2023-08-08T13:31:47;1.20;;;0.60;;
80425;SDS011;69766;51.476;5.704;2023-08-08T13:34:13;3.00;;;0.95;;
80425;SDS011;69766;51.476;5.704;2023-08-08T13:36:41;2.13;;;1.02;;
80425;SDS011;69766;51.476;5.704;2023-08-08T13:39:07;2.55;;;0.80;;
80425;SDS011;69766;51.476;5.704;2023-08-08T13:41:34;3.30;;;0.70;;
80425;SDS011;69766;51.476;5.704;2023-08-08T13:44:00;1.98;;;0.90;;
80425;SDS011;69766;51.476;5.704;2023-08-08T13:46:26;2.45;;;0.50;;
80425;SDS011;69766;51.476;5.704;2023-08-08T13:48:51;2.65;;;0.68;;
80425;SDS011;69766;51.476;5.704;2023-08-08T13:51:17;2.17;;;0.50;;
80425;SDS011;69766;51.476;5.704;2023-08-08T13:53:43;0.65;;;0.40;;
80425;SDS011;69766;51.476;5.704;2023-08-08T13:56:10;2.53;;;0.70;;
80425;SDS011;69766;51.476;5.704;2023-08-08T13:58:36;2.35;;;0.70;;
80425;SDS011;69766;51.476;5.704;2023-08-08T14:01:01;1.63;;;0.70;;
80425;SDS011;69766;51.476;5.704;2023-08-08T14:03:27;1.77;;;0.50;;
80425;SDS011;69766;51.476;5.704;2023-08-08T14:05:53;2.85;;;0.60;;
80425;SDS011;69766;51.476;5.704;2023-08-08T14:08:19;1.25;;;0.57;;
80425;SDS011;69766;51.476;5.704;2023-08-08T14:10:45;1.77;;;0.60;;
80425;SDS011;69766;51.476;5.704;2023-08-08T14:13:11;0.68;;;0.43;;
80425;SDS011;69766;51.476;5.704;2023-08-08T14:15:37;1.35;;;0.50;;
80425;SDS011;69766;51.476;5.704;2023-08-08T14:18:03;2.65;;;0.68;;
80425;SDS011;69766;51.476;5.704;2023-08-08T14:20:29;1.77;;;0.65;;
80425;SDS011;69766;51.476;5.704;2023-08-08T14:22:55;3.38;;;0.73;;
80425;SDS011;69766;51.476;5.704;2023-08-08T14:25:21;4.13;;;1.10;;
80425;SDS011;69766;51.476;5.704;2023-08-08T14:27:47;0.98;;;0.55;;
80425;SDS011;69766;51.476;5.704;2023-08-08T14:30:13;2.15;;;0.80;;
80425;SDS011;69766;51.476;5.704;2023-08-08T14:32:38;1.88;;;0.60;;
80425;SDS011;69766;51.476;5.704;2023-08-08T14:35:05;2.85;;;1.00;;
80425;SDS011;69766;51.476;5.704;2023-08-08T14:37:31;2.25;;;0.95;;
80425;SDS011;69766;51.476;5.704;2023-08-08T14:39:57;3.63;;;0.80;;
80425;SDS011;69766;51.476;5.704;2023-08-08T14:42:23;1.45;;;0.70;;
80425;SDS011;69766;51.476;5.704;2023-08-08T14:44:49;2.83;;;0.80;;
80425;SDS011;69766;51.476;5.704;2023-08-08T14:47:14;3.40;;;0.88;;
80425;SDS011;69766;51.476;5.704;2023-08-08T14:49:40;2.38;;;0.80;;
80425;SDS011;69766;51.476;5.704;2023-08-08T14:52:06;2.22;;;0.80;;
80425;SDS011;69766;51.476;5.704;2023-08-08T14:54:33;3.15;;;1.05;;